createdAt,value
2018-09-25T00:00:05.870Z,103325.39
2018-09-25T00:02:52.341Z,103327.68
2018-09-25T00:05:38.900Z,103329.03
2018-09-25T00:08:25.356Z,103325.45
2018-09-25T00:11:12.085Z,103330.80
2018-09-25T00:13:58.925Z,103329.44
2018-09-25T00:16:45.672Z,103325.67
2018-09-25T00:19:32.240Z,103325.79
2018-09-25T00:22:18.918Z,103323.68
2018-09-25T00:25:05.501Z,103330.72
2018-09-25T00:27:52.338Z,103329.42
2018-09-25T00:30:38.885Z,103333.02
2018-09-25T00:33:25.669Z,103339.52
2018-09-25T00:36:12.682Z,103337.46
2018-09-25T00:38:59.435Z,103345.04
2018-09-25T00:41:46.214Z,103353.03
2018-09-25T00:44:33.230Z,103355.11
2018-09-25T00:47:19.873Z,103354.52
2018-09-25T00:50:06.225Z,103351.34
2018-09-25T00:52:52.645Z,103351.41
2018-09-25T00:55:39.172Z,103353.16
2018-09-25T00:58:25.899Z,103352.34
2018-09-25T01:01:12.707Z,103346.12
2018-09-25T01:03:59.167Z,103350.23
2018-09-25T01:06:45.481Z,103349.16
2018-09-25T01:09:32.136Z,103349.68
2018-09-25T01:12:18.720Z,103353.89
2018-09-25T01:15:05.312Z,103358.12
2018-09-25T01:17:52.280Z,103363.88
2018-09-25T01:20:39.112Z,103357.79
2018-09-25T01:23:25.533Z,103366.31
2018-09-25T01:26:12.252Z,103357.08
2018-09-25T01:28:58.813Z,103351.76
2018-09-25T01:31:45.140Z,103349.36
2018-09-25T01:34:32.146Z,103348.31
2018-09-25T01:37:18.632Z,103342.94
2018-09-25T01:40:05.172Z,103336.80
2018-09-25T01:42:51.935Z,103339.00
2018-09-25T01:45:38.639Z,103347.11
2018-09-25T01:48:25.548Z,103343.64
2018-09-25T01:51:12.349Z,103343.74
2018-09-25T01:53:59.161Z,103342.39
2018-09-25T01:56:45.657Z,103340.58
2018-09-25T01:59:32.262Z,103335.18
2018-09-25T02:02:19.302Z,103333.42
2018-09-25T02:05:06.060Z,103334.66
2018-09-25T02:07:52.732Z,103336.58
2018-09-25T02:10:39.234Z,103341.70
2018-09-25T02:13:25.755Z,103347.63
2018-09-25T02:16:12.448Z,103351.83
2018-09-25T02:18:59.169Z,103352.75
2018-09-25T02:21:45.952Z,103356.16
2018-09-25T02:24:32.312Z,103347.70
2018-09-25T02:27:19.367Z,103349.77
2018-09-25T02:30:06.058Z,103350.12
2018-09-25T02:32:52.553Z,103351.49
2018-09-25T02:35:39.528Z,103347.83
2018-09-25T02:38:26.065Z,103346.20
2018-09-25T02:41:12.495Z,103347.36
2018-09-25T02:43:59.176Z,103350.89
2018-09-25T02:46:45.860Z,103352.41
2018-09-25T02:49:32.620Z,103353.64
2018-09-25T02:52:19.266Z,103357.91
2018-09-25T02:55:05.562Z,103363.22
2018-09-25T02:57:52.211Z,103360.11
2018-09-25T03:00:38.816Z,103360.06
2018-09-25T03:03:25.543Z,103355.94
2018-09-25T03:06:11.847Z,103348.51
2018-09-25T03:08:58.607Z,103349.54
2018-09-25T03:11:45.542Z,103343.73
2018-09-25T03:14:31.797Z,103349.72
2018-09-25T03:17:18.500Z,103348.63
2018-09-25T03:20:05.065Z,103348.23
2018-09-25T03:22:51.596Z,103345.36
2018-09-25T03:25:38.276Z,103352.55
2018-09-25T03:28:25.214Z,103350.97
2018-09-25T03:31:11.792Z,103349.84
2018-09-25T03:33:58.367Z,103347.63
2018-09-25T03:36:45.280Z,103346.88
2018-09-25T03:39:31.494Z,103347.25
2018-09-25T03:42:17.790Z,103343.77
2018-09-25T03:45:04.160Z,103343.44
2018-09-25T03:47:50.707Z,103346.81
2018-09-25T03:50:37.035Z,103350.39
2018-09-25T03:53:23.431Z,103348.07
2018-09-25T03:56:09.920Z,103349.14
2018-09-25T03:58:56.233Z,103354.49
2018-09-25T04:01:42.460Z,103352.48
2018-09-25T04:04:29.044Z,103355.09
2018-09-25T04:07:15.412Z,103350.72
2018-09-25T04:10:02.283Z,103357.34
2018-09-25T04:12:48.545Z,103363.55
2018-09-25T04:15:35.363Z,103362.71
2018-09-25T04:18:22.044Z,103357.70
2018-09-25T04:21:08.875Z,103363.55
2018-09-25T04:23:55.394Z,103364.10
2018-09-25T04:26:41.947Z,103359.69
2018-09-25T04:29:28.219Z,103368.69
2018-09-25T04:32:14.837Z,103366.84
2018-09-25T04:35:01.542Z,103367.26
2018-09-25T04:37:47.956Z,103370.16
2018-09-25T04:40:34.322Z,103371.08
2018-09-25T04:43:20.904Z,103372.42
2018-09-25T04:46:07.201Z,103365.36
2018-09-25T04:48:54.045Z,103359.17
2018-09-25T04:51:40.939Z,103356.95
2018-09-25T04:54:27.450Z,103365.95
2018-09-25T04:57:14.218Z,103375.37
2018-09-25T05:00:00.828Z,103376.41
2018-09-25T05:02:47.670Z,103381.80
2018-09-25T05:05:34.346Z,103380.84
2018-09-25T05:08:20.789Z,103383.31
2018-09-25T05:11:07.251Z,103373.81
2018-09-25T05:13:53.663Z,103372.59
2018-09-25T05:16:40.395Z,103378.67
2018-09-25T05:19:27.064Z,103371.65
2018-09-25T05:22:13.777Z,103378.21
2018-09-25T05:25:00.108Z,103384.47
2018-09-25T05:27:46.528Z,103388.67
2018-09-25T05:30:33.271Z,103391.56
2018-09-25T05:33:19.764Z,103390.83
2018-09-25T05:36:06.389Z,103394.98
2018-09-25T05:38:52.912Z,103388.48
2018-09-25T05:41:39.281Z,103400.73
2018-09-25T05:44:26.037Z,103398.20
2018-09-25T05:47:12.570Z,103399.02
2018-09-25T05:49:59.300Z,103404.81
2018-09-25T05:52:45.851Z,103410.47
2018-09-25T05:55:32.678Z,103406.81
2018-09-25T05:58:19.423Z,103399.20
2018-09-25T06:01:06.271Z,103408.58
2018-09-25T06:03:52.869Z,103408.39
2018-09-25T06:06:39.577Z,103409.66
2018-09-25T06:09:26.781Z,103415.46
2018-09-25T06:12:13.251Z,103408.55
2018-09-25T06:15:00.066Z,103407.88
2018-09-25T06:17:46.865Z,103414.99
2018-09-25T06:20:33.398Z,103418.27
2018-09-25T06:23:20.207Z,103409.58
2018-09-25T06:26:06.944Z,103417.27
2018-09-25T06:28:53.592Z,103422.02
2018-09-25T06:31:40.411Z,103417.37
2018-09-25T06:34:26.888Z,103423.89
2018-09-25T06:37:13.737Z,103420.46
2018-09-25T06:40:00.532Z,103426.52
2018-09-25T06:42:46.884Z,103434.85
2018-09-25T06:45:33.817Z,103434.61
2018-09-25T06:48:20.630Z,103429.94
2018-09-25T06:51:07.360Z,103433.81
2018-09-25T06:53:54.039Z,103439.52
2018-09-25T06:56:40.591Z,103440.26
2018-09-25T06:59:26.853Z,103443.58
2018-09-25T07:02:13.734Z,103444.90
2018-09-25T07:05:00.376Z,103449.13
2018-09-25T07:07:47.045Z,103450.02
2018-09-25T07:10:34.010Z,103452.25
2018-09-25T07:13:20.425Z,103459.50
2018-09-25T07:16:06.979Z,103456.65
2018-09-25T07:18:53.689Z,103462.38
2018-09-25T07:21:40.211Z,103463.72
2018-09-25T07:24:26.498Z,103460.05
2018-09-25T07:27:13.014Z,103456.39
2018-09-25T07:29:59.321Z,103466.66
2018-09-25T07:32:45.833Z,103472.16
2018-09-25T07:35:32.559Z,103475.41
2018-09-25T07:38:19.140Z,103479.14
2018-09-25T07:41:05.918Z,103491.86
2018-09-25T07:43:52.409Z,103489.67
2018-09-25T07:46:39.118Z,103486.01
2018-09-25T07:49:25.837Z,103495.42
2018-09-25T07:52:12.579Z,103505.25
2018-09-25T07:54:59.184Z,103498.89
2018-09-25T07:57:45.621Z,103499.53
2018-09-25T08:00:32.388Z,103500.94
2018-09-25T08:03:19.091Z,103505.45
2018-09-25T08:06:05.501Z,103503.50
2018-09-25T08:08:52.378Z,103493.30
2018-09-25T08:11:38.950Z,103493.33
2018-09-25T08:14:25.463Z,103504.27
2018-09-25T08:17:12.393Z,103501.16
2018-09-25T08:19:59.026Z,103498.56
2018-09-25T08:22:45.529Z,103500.65
2018-09-25T08:25:32.147Z,103504.73
2018-09-25T08:28:18.681Z,103501.73
2018-09-25T08:31:05.323Z,103509.98
2018-09-25T08:33:51.897Z,103506.11
2018-09-25T08:36:38.130Z,103505.80
2018-09-25T08:39:27.154Z,103509.03
2018-09-25T08:42:13.480Z,103511.58
2018-09-25T08:45:00.007Z,103512.69
2018-09-25T08:47:46.768Z,103510.73
2018-09-25T08:50:33.430Z,103518.80
2018-09-25T08:53:19.746Z,103521.81
2018-09-25T08:56:06.516Z,103523.20
2018-09-25T08:58:52.981Z,103525.98
2018-09-25T09:01:39.336Z,103529.30
2018-09-25T09:04:25.953Z,103529.84
2018-09-25T09:07:12.695Z,103534.29
2018-09-25T09:09:59.284Z,103533.08
2018-09-25T09:12:45.701Z,103529.71
2018-09-25T09:15:32.457Z,103529.57
2018-09-25T09:18:19.322Z,103535.34
2018-09-25T09:21:05.606Z,103536.11
2018-09-25T09:23:52.142Z,103541.17
2018-09-25T09:26:38.549Z,103536.83
2018-09-25T09:29:25.285Z,103531.83
2018-09-25T09:32:11.635Z,103529.67
2018-09-25T09:34:58.336Z,103527.41
2018-09-25T09:37:44.924Z,103528.34
2018-09-25T09:40:31.454Z,103528.57
2018-09-25T09:43:18.424Z,103527.26
2018-09-25T09:46:05.003Z,103534.65
2018-09-25T09:48:51.774Z,103536.08
2018-09-25T09:51:38.289Z,103540.30
2018-09-25T09:54:24.664Z,103533.81
2018-09-25T09:57:11.396Z,103536.74
2018-09-25T09:59:58.020Z,103536.17
2018-09-25T10:02:44.425Z,103547.52
2018-09-25T10:05:30.761Z,103537.44
2018-09-25T10:08:17.296Z,103542.05
2018-09-25T10:11:03.913Z,103546.50
2018-09-25T10:13:50.337Z,103545.36
2018-09-25T10:16:37.041Z,103526.42
2018-09-25T10:19:23.562Z,103521.28
2018-09-25T10:22:10.222Z,103522.03
2018-09-25T10:24:56.698Z,103519.62
2018-09-25T10:27:43.313Z,103511.19
2018-09-25T10:30:29.591Z,103512.31
2018-09-25T10:33:15.927Z,103510.14
2018-09-25T10:36:02.418Z,103514.34
2018-09-25T10:38:48.764Z,103510.86
2018-09-25T10:41:35.276Z,103512.31
2018-09-25T10:44:21.982Z,103508.94
2018-09-25T10:47:08.389Z,103505.44
2018-09-25T10:49:54.968Z,103506.03
2018-09-25T10:52:41.591Z,103506.52
2018-09-25T10:55:27.872Z,103496.78
2018-09-25T10:58:14.724Z,103498.34
2018-09-25T11:01:01.187Z,103490.98
2018-09-25T11:03:47.793Z,103491.94
2018-09-25T11:06:34.595Z,103484.83
2018-09-25T11:09:21.107Z,103484.23
2018-09-25T11:12:07.700Z,103490.48
2018-09-25T11:14:54.204Z,103492.03
2018-09-25T11:17:41.016Z,103495.11
2018-09-25T11:20:27.476Z,103496.45
2018-09-25T11:23:13.821Z,103495.49
2018-09-25T11:26:00.272Z,103494.45
2018-09-25T11:28:46.872Z,103499.84
2018-09-25T11:31:33.385Z,103497.17
2018-09-25T11:34:20.364Z,103493.11
2018-09-25T11:37:07.092Z,103488.67
2018-09-25T11:39:53.831Z,103490.42
2018-09-25T11:42:40.585Z,103490.16
2018-09-25T11:45:27.159Z,103486.78
2018-09-25T11:48:13.773Z,103477.37
2018-09-25T11:51:00.500Z,103479.23
2018-09-25T11:53:47.043Z,103474.41
2018-09-25T11:56:33.751Z,103479.57
2018-09-25T11:59:20.301Z,103473.47
2018-09-25T12:02:07.004Z,103468.12
2018-09-25T12:04:53.341Z,103465.12
2018-09-25T12:07:40.326Z,103462.14
2018-09-25T12:10:26.760Z,103460.53
2018-09-25T12:13:13.265Z,103460.55
2018-09-25T12:16:00.028Z,103461.70
2018-09-25T12:18:46.774Z,103468.06
2018-09-25T12:21:33.300Z,103465.12
2018-09-25T12:24:19.757Z,103459.66
2018-09-25T12:27:06.460Z,103462.80
2018-09-25T12:29:52.747Z,103453.69
2018-09-25T12:32:39.541Z,103449.69
2018-09-25T12:35:26.274Z,103444.22
2018-09-25T12:38:12.768Z,103443.73
2018-09-25T12:40:59.375Z,103435.73
2018-09-25T12:43:45.897Z,103424.89
2018-09-25T12:46:32.560Z,103426.86
2018-09-25T12:49:19.088Z,103429.63
2018-09-25T12:52:05.435Z,103422.97
2018-09-25T12:54:52.244Z,103415.38
2018-09-25T12:57:38.600Z,103417.37
2018-09-25T13:00:25.264Z,103407.89
2018-09-25T13:03:11.668Z,103406.98
2018-09-25T13:05:58.042Z,103405.14
2018-09-25T13:08:44.473Z,103409.14
2018-09-25T13:11:30.728Z,103405.53
2018-09-25T13:14:17.277Z,103408.53
2018-09-25T13:17:03.594Z,103402.43
2018-09-25T13:19:50.302Z,103400.30
2018-09-25T13:22:36.715Z,103394.18
2018-09-25T13:25:23.336Z,103389.52
2018-09-25T13:28:09.685Z,103389.86
2018-09-25T13:30:56.594Z,103386.02
2018-09-25T13:33:43.345Z,103384.01
2018-09-25T13:36:29.835Z,103379.86
2018-09-25T13:39:16.262Z,103383.52
2018-09-25T13:42:03.209Z,103382.64
2018-09-25T13:44:49.768Z,103389.83
2018-09-25T13:47:36.346Z,103384.58
2018-09-25T13:50:23.103Z,103376.85
2018-09-25T13:53:09.571Z,103365.75
2018-09-25T13:55:56.258Z,103361.78
2018-09-25T13:58:43.198Z,103366.89
2018-09-25T14:01:29.966Z,103368.03
2018-09-25T14:04:16.706Z,103370.99
2018-09-25T14:07:03.565Z,103360.80
2018-09-25T14:09:50.458Z,103355.09
2018-09-25T14:12:37.317Z,103361.06
2018-09-25T14:15:23.793Z,103353.56
2018-09-25T14:18:10.054Z,103351.85
2018-09-25T14:20:56.839Z,103343.98
2018-09-25T14:23:43.393Z,103341.73
2018-09-25T14:26:29.872Z,103336.86
2018-09-25T14:29:16.458Z,103331.50
2018-09-25T14:32:03.117Z,103332.79
2018-09-25T14:34:49.591Z,103323.72
2018-09-25T14:37:36.541Z,103332.09
2018-09-25T14:40:23.739Z,103329.26
2018-09-25T14:43:10.401Z,103329.62
2018-09-25T14:45:56.907Z,103318.75
2018-09-25T14:48:43.403Z,103319.89
2018-09-25T14:51:30.322Z,103313.03
2018-09-25T14:54:17.143Z,103309.02
2018-09-25T14:57:03.636Z,103307.52
2018-09-25T14:59:50.078Z,103304.25
2018-09-25T15:02:36.513Z,103296.89
2018-09-25T15:05:22.813Z,103297.86
2018-09-25T15:08:09.301Z,103294.90
2018-09-25T15:10:56.153Z,103296.52
2018-09-25T15:13:42.686Z,103297.17
2018-09-25T15:16:29.614Z,103293.32
2018-09-25T15:19:16.146Z,103296.73
2018-09-25T15:22:02.818Z,103290.34
2018-09-25T15:24:49.016Z,103297.69
2018-09-25T15:27:35.829Z,103291.10
2018-09-25T15:30:22.415Z,103285.89
2018-09-25T15:33:09.311Z,103284.03
2018-09-25T15:35:55.740Z,103286.53
2018-09-25T15:38:42.465Z,103285.52
2018-09-25T15:41:29.312Z,103293.35
2018-09-25T15:44:15.909Z,103295.33
2018-09-25T15:47:02.807Z,103295.53
2018-09-25T15:49:49.439Z,103292.31
2018-09-25T15:52:36.191Z,103295.25
2018-09-25T15:55:22.489Z,103299.32
2018-09-25T15:58:08.886Z,103296.58
2018-09-25T16:00:55.344Z,103299.05
2018-09-25T16:03:42.217Z,103295.44
2018-09-25T16:06:29.001Z,103295.67
2018-09-25T16:09:16.132Z,103304.82
2018-09-25T16:12:02.807Z,103291.13
2018-09-25T16:14:49.380Z,103290.90
2018-09-25T16:17:36.070Z,103284.84
2018-09-25T16:20:23.105Z,103287.03
2018-09-25T16:23:09.869Z,103293.22
2018-09-25T16:25:57.293Z,103297.27
2018-09-25T16:28:43.869Z,103295.33
2018-09-25T16:31:30.227Z,103299.91
2018-09-25T16:34:17.318Z,103293.89
2018-09-25T16:37:04.062Z,103300.50
2018-09-25T16:39:50.375Z,103298.09
2018-09-25T16:42:37.442Z,103296.18
2018-09-25T16:45:23.774Z,103294.23
2018-09-25T16:48:10.560Z,103289.05
2018-09-25T16:50:57.249Z,103288.67
2018-09-25T16:53:44.021Z,103286.39
2018-09-25T16:56:30.418Z,103281.20
2018-09-25T16:59:17.132Z,103285.39
2018-09-25T17:02:03.785Z,103285.80
2018-09-25T17:04:50.325Z,103291.81
2018-09-25T17:07:37.268Z,103286.41
2018-09-25T17:10:23.895Z,103278.58
2018-09-25T17:13:10.361Z,103292.56
2018-09-25T17:15:57.025Z,103292.61
2018-09-25T17:18:43.729Z,103281.60
2018-09-25T17:21:30.509Z,103280.44
2018-09-25T17:24:17.012Z,103288.20
2018-09-25T17:27:03.896Z,103291.05
2018-09-25T17:29:50.429Z,103302.98
2018-09-25T17:32:36.958Z,103297.42
2018-09-25T17:35:23.542Z,103302.08
2018-09-25T17:38:10.036Z,103314.70
2018-09-25T17:40:56.822Z,103312.63
2018-09-25T17:43:43.595Z,103300.66
2018-09-25T17:46:30.370Z,103301.55
2018-09-25T17:49:17.300Z,103301.66
2018-09-25T17:52:04.046Z,103295.88
2018-09-25T17:54:50.645Z,103301.47
2018-09-25T17:57:37.470Z,103315.73
2018-09-25T18:00:25.059Z,103322.30
2018-09-25T18:03:11.353Z,103326.05
2018-09-25T18:05:58.202Z,103323.09
2018-09-25T18:08:44.653Z,103319.21
2018-09-25T18:11:30.947Z,103321.62
2018-09-25T18:14:17.273Z,103329.06
2018-09-25T18:17:04.010Z,103319.70
2018-09-25T18:19:50.557Z,103330.57
2018-09-25T18:22:37.413Z,103325.62
2018-09-25T18:25:24.343Z,103324.48
2018-09-25T18:28:11.203Z,103332.17
2018-09-25T18:30:57.431Z,103326.95
2018-09-25T18:33:44.296Z,103316.52
2018-09-25T18:36:31.134Z,103310.41
2018-09-25T18:39:17.320Z,103309.16
2018-09-25T18:42:03.721Z,103307.22
2018-09-25T18:44:50.713Z,103297.14
2018-09-25T18:47:37.081Z,103301.42
2018-09-25T18:50:23.401Z,103307.13
2018-09-25T18:53:11.702Z,103307.39
2018-09-25T18:55:58.348Z,103311.70
2018-09-25T18:58:45.340Z,103309.05
2018-09-25T19:01:32.394Z,103304.87
2018-09-25T19:04:18.644Z,103304.87
2018-09-25T19:07:05.483Z,103311.84
2018-09-25T19:09:52.482Z,103316.87
2018-09-25T19:12:39.369Z,103315.44
2018-09-25T19:15:26.025Z,103313.21
2018-09-25T19:18:12.853Z,103311.06
2018-09-25T19:20:59.322Z,103313.04
2018-09-25T19:23:46.156Z,103310.07
2018-09-25T19:26:32.844Z,103307.98
2018-09-25T19:29:19.407Z,103306.95
2018-09-25T19:32:05.631Z,103309.51
2018-09-25T19:34:51.958Z,103311.74
2018-09-25T19:37:38.678Z,103307.02
2018-09-25T19:40:25.181Z,103306.05
2018-09-25T19:43:12.029Z,103296.29
2018-09-25T19:45:58.600Z,103294.74
2018-09-25T19:48:45.457Z,103301.66
2018-09-25T19:51:31.872Z,103299.89
2018-09-25T19:54:18.814Z,103302.17
2018-09-25T19:57:05.711Z,103295.85
2018-09-25T19:59:52.462Z,103298.16
2018-09-25T20:02:39.313Z,103282.22
2018-09-25T20:05:25.996Z,103282.34
2018-09-25T20:08:12.308Z,103280.24
2018-09-25T20:10:59.016Z,103277.30
2018-09-25T20:13:45.551Z,103257.27
2018-09-25T20:16:32.301Z,103253.52
2018-09-25T20:19:18.782Z,103251.22
2018-09-25T20:22:05.547Z,103248.92
2018-09-25T20:24:52.195Z,103244.83
2018-09-25T20:27:38.701Z,103238.12
2018-09-25T20:30:25.361Z,103251.43
2018-09-25T20:33:11.851Z,103270.69
2018-09-25T20:35:58.541Z,103285.95
2018-09-25T20:38:45.208Z,103286.14
2018-09-25T20:41:31.857Z,103286.58
2018-09-25T20:44:18.846Z,103289.72
2018-09-25T20:47:05.353Z,103296.03
2018-09-25T20:49:52.061Z,103289.62
2018-09-25T20:52:38.799Z,103286.91
2018-09-25T20:55:25.567Z,103273.47
2018-09-25T20:58:11.924Z,103257.44
2018-09-25T21:00:58.266Z,103258.01
2018-09-25T21:03:45.394Z,103241.31
2018-09-25T21:06:31.681Z,103232.38
2018-09-25T21:09:18.070Z,103232.52
2018-09-25T21:12:04.615Z,103222.58
2018-09-25T21:14:51.836Z,103223.80
2018-09-25T21:17:38.586Z,103221.68
2018-09-25T21:20:25.637Z,103217.84
2018-09-25T21:23:12.399Z,103220.31
2018-09-25T21:25:59.170Z,103218.08
2018-09-25T21:28:46.172Z,103210.97
2018-09-25T21:31:32.717Z,103209.85
2018-09-25T21:34:19.193Z,103214.72
2018-09-25T21:37:06.105Z,103211.68
2018-09-25T21:39:52.610Z,103227.09
2018-09-25T21:42:39.092Z,103223.45
2018-09-25T21:45:25.988Z,103218.18
2018-09-25T21:48:12.408Z,103214.19
2018-09-25T21:50:59.172Z,103210.01
2018-09-25T21:53:45.652Z,103208.95
2018-09-25T21:56:31.911Z,103210.56
2018-09-25T21:59:18.557Z,103211.89
2018-09-25T22:02:04.891Z,103211.30
2018-09-25T22:04:51.704Z,103208.06
2018-09-25T22:07:38.472Z,103204.43
2018-09-25T22:10:25.095Z,103202.45
2018-09-25T22:13:12.015Z,103199.75
2018-09-25T22:15:58.559Z,103189.58
2018-09-25T22:18:45.274Z,103197.47
2018-09-25T22:21:32.120Z,103194.23
2018-09-25T22:24:18.634Z,103189.14
2018-09-25T22:27:05.475Z,103185.87
2018-09-25T22:29:51.975Z,103182.42
2018-09-25T22:32:38.739Z,103177.96
2018-09-25T22:35:25.154Z,103178.78
2018-09-25T22:38:12.065Z,103182.14
2018-09-25T22:40:58.774Z,103186.00
2018-09-25T22:43:45.241Z,103187.02
2018-09-25T22:46:31.987Z,103186.41
2018-09-25T22:49:18.700Z,103191.19
2018-09-25T22:52:05.529Z,103192.82
2018-09-25T22:54:52.497Z,103186.19
2018-09-25T22:57:38.824Z,103189.83
2018-09-25T23:00:25.168Z,103194.16
2018-09-25T23:03:12.136Z,103191.01
2018-09-25T23:05:58.821Z,103191.06
2018-09-25T23:08:45.373Z,103183.90
2018-09-25T23:11:32.356Z,103173.80
2018-09-25T23:14:19.102Z,103175.61
2018-09-25T23:17:05.594Z,103168.58
2018-09-25T23:19:52.363Z,103166.58
2018-09-25T23:22:39.173Z,103167.52
2018-09-25T23:25:26.078Z,103163.34
2018-09-25T23:28:12.522Z,103158.66
2018-09-25T23:30:59.214Z,103155.23
2018-09-25T23:33:46.063Z,103147.25
2018-09-25T23:36:32.627Z,103140.50
2018-09-25T23:39:19.558Z,103139.33
2018-09-25T23:42:07.714Z,103141.08
2018-09-25T23:44:50.528Z,103137.59
2018-09-25T23:47:27.394Z,103132.51
2018-09-25T23:49:59.562Z,103146.36
2018-09-25T23:52:47.515Z,103146.96
2018-09-25T23:55:24.380Z,103145.20
2018-09-25T23:57:58.187Z,103139.78
